AFL142 UMMS-UUEE
Flight info
| Callsign | AFL142 |
|---|---|
| Flight time | 1h 18m |
| Altitude | 37000 |
| Route | AGNEF2F AGNEF N869 RATIN L999 AGLAN M864 DIPOP DIPOP3F |
| Aircraft | B738/M-SDE2E3FGHIRWXY/LB1 |
Departure
| Time | 2026-05-07 13:55 |
|---|---|
| Airport | Minsk National Airport (UMMS) |
Arrival
| Time | 2026-05-07 15:13 |
|---|---|
| Airport | Sheremetyevo International Airport (UUEE) |
| Time | Latitude | Longitude | Altitude | Speed | Heading |
|---|---|---|---|---|---|
| 2026-05-07 13:26 | 53.88912 | 28.03590 | 668 ft | 0 kts | 313° |
| 2026-05-07 13:38 | 53.88908 | 28.03596 | 668 ft | 4 kts | 313° |
| 2026-05-07 13:39 | 53.88894 | 28.03623 | 666 ft | 4 kts | 319° |
| 2026-05-07 13:39 | 53.88872 | 28.03639 | 667 ft | 4 kts | 11° |
| 2026-05-07 13:39 | 53.88850 | 28.03621 | 667 ft | 4 kts | 42° |
| 2026-05-07 13:39 | 53.88839 | 28.03603 | 666 ft | 0 kts | 47° |
| 2026-05-07 13:44 | 53.88839 | 28.03604 | 666 ft | 1 kts | 47° |
| 2026-05-07 13:44 | 53.88867 | 28.03654 | 667 ft | 10 kts | 44° |
| 2026-05-07 13:44 | 53.88919 | 28.03737 | 668 ft | 10 kts | 59° |
| 2026-05-07 13:44 | 53.88897 | 28.03872 | 668 ft | 15 kts | 119° |
| 2026-05-07 13:45 | 53.88853 | 28.03988 | 668 ft | 9 kts | 131° |
| 2026-05-07 13:45 | 53.88811 | 28.04076 | 665 ft | 9 kts | 101° |
| 2026-05-07 13:45 | 53.88838 | 28.04164 | 668 ft | 9 kts | 49° |
| 2026-05-07 13:45 | 53.88888 | 28.04260 | 668 ft | 15 kts | 49° |
| 2026-05-07 13:46 | 53.88966 | 28.04406 | 668 ft | 17 kts | 48° |
| 2026-05-07 13:46 | 53.89046 | 28.04557 | 668 ft | 21 kts | 48° |
| 2026-05-07 13:46 | 53.89158 | 28.04767 | 668 ft | 20 kts | 48° |
| 2026-05-07 13:46 | 53.89200 | 28.04866 | 668 ft | 9 kts | 83° |
| 2026-05-07 13:47 | 53.89128 | 28.05003 | 667 ft | 20 kts | 140° |
| 2026-05-07 13:47 | 53.89026 | 28.05152 | 668 ft | 19 kts | 139° |
| 2026-05-07 13:47 | 53.88919 | 28.05313 | 668 ft | 23 kts | 139° |
| 2026-05-07 13:47 | 53.88782 | 28.05517 | 668 ft | 29 kts | 139° |
| 2026-05-07 13:48 | 53.88635 | 28.05732 | 668 ft | 27 kts | 139° |
| 2026-05-07 13:48 | 53.88499 | 28.05936 | 668 ft | 25 kts | 139° |
| 2026-05-07 13:48 | 53.88370 | 28.06124 | 668 ft | 23 kts | 139° |
| 2026-05-07 13:48 | 53.88251 | 28.06303 | 668 ft | 23 kts | 139° |
| 2026-05-07 13:49 | 53.88135 | 28.06475 | 668 ft | 22 kts | 139° |
| 2026-05-07 13:49 | 53.88021 | 28.06641 | 668 ft | 21 kts | 140° |
| 2026-05-07 13:49 | 53.87941 | 28.06796 | 667 ft | 13 kts | 102° |
| 2026-05-07 13:49 | 53.87958 | 28.06866 | 667 ft | 0 kts | 44° |
| 2026-05-07 13:52 | 53.87990 | 28.06922 | 667 ft | 15 kts | 47° |
| 2026-05-07 13:53 | 53.88113 | 28.06910 | 665 ft | 22 kts | 320° |
| 2026-05-07 13:53 | 53.88134 | 28.06879 | 665 ft | 0 kts | 319° |
| 2026-05-07 13:55 | 53.88253 | 28.06702 | 664 ft | 69 kts | 317° |
| 2026-05-07 13:55 | 53.88845 | 28.05780 | 664 ft | 160 kts | 323° |
| 2026-05-07 13:55 | 53.89821 | 28.04319 | 1188 ft | 202 kts | 316° |
| 2026-05-07 13:55 | 53.90825 | 28.02792 | 2616 ft | 178 kts | 312° |
| 2026-05-07 13:56 | 53.91629 | 28.01592 | 4292 ft | 136 kts | 310° |
| 2026-05-07 13:56 | 53.92345 | 28.00515 | 5038 ft | 151 kts | 308° |
| 2026-05-07 13:56 | 53.93235 | 27.99029 | 5067 ft | 206 kts | 307° |
| 2026-05-07 13:56 | 53.94276 | 27.97247 | 5523 ft | 223 kts | 311° |
| 2026-05-07 13:57 | 53.95672 | 27.95811 | 5902 ft | 256 kts | 341° |
| 2026-05-07 13:57 | 53.97509 | 27.95999 | 6488 ft | 274 kts | 12° |
| 2026-05-07 13:57 | 53.99342 | 27.97012 | 7160 ft | 280 kts | 15° |
| 2026-05-07 13:57 | 54.01213 | 27.98047 | 7769 ft | 283 kts | 14° |
| 2026-05-07 13:58 | 54.03096 | 27.99042 | 7951 ft | 287 kts | 14° |
| 2026-05-07 13:58 | 54.04850 | 28.00712 | 7844 ft | 293 kts | 44° |
| 2026-05-07 13:58 | 54.06002 | 28.03497 | 7859 ft | 287 kts | 68° |
| 2026-05-07 13:58 | 54.06455 | 28.06758 | 7844 ft | 282 kts | 93° |
| 2026-05-07 13:59 | 54.06384 | 28.10076 | 7854 ft | 282 kts | 96° |
| 2026-05-07 13:59 | 54.06347 | 28.13422 | 7879 ft | 284 kts | 96° |
| 2026-05-07 13:59 | 54.06272 | 28.16793 | 7852 ft | 285 kts | 95° |
| 2026-05-07 13:59 | 54.06274 | 28.20167 | 7870 ft | 285 kts | 93° |
| 2026-05-07 14:00 | 54.06323 | 28.23564 | 7872 ft | 290 kts | 89° |
| 2026-05-07 14:00 | 54.06572 | 28.27069 | 8104 ft | 310 kts | 86° |
| 2026-05-07 14:00 | 54.06772 | 28.30764 | 9134 ft | 311 kts | 89° |
| 2026-05-07 14:00 | 54.06977 | 28.34405 | 10230 ft | 315 kts | 87° |
| 2026-05-07 14:01 | 54.07248 | 28.38120 | 11214 ft | 320 kts | 81° |
| 2026-05-07 14:01 | 54.08115 | 28.41709 | 11871 ft | 341 kts | 58° |
| 2026-05-07 14:01 | 54.09500 | 28.45183 | 12099 ft | 369 kts | 57° |
| 2026-05-07 14:01 | 54.10932 | 28.48982 | 12371 ft | 392 kts | 57° |
| 2026-05-07 14:02 | 54.12696 | 28.52582 | 12990 ft | 401 kts | 37° |
| 2026-05-07 14:02 | 54.15149 | 28.54776 | 13874 ft | 399 kts | 17° |
| 2026-05-07 14:02 | 54.17751 | 28.56479 | 14696 ft | 403 kts | 20° |
| 2026-05-07 14:02 | 54.20329 | 28.58439 | 15440 ft | 408 kts | 22° |
| 2026-05-07 14:03 | 54.22921 | 28.60486 | 16165 ft | 413 kts | 22° |
| 2026-05-07 14:03 | 54.25541 | 28.62562 | 16955 ft | 417 kts | 22° |
| 2026-05-07 14:03 | 54.28191 | 28.64649 | 17749 ft | 422 kts | 22° |
| 2026-05-07 14:03 | 54.30878 | 28.66749 | 18484 ft | 426 kts | 21° |
| 2026-05-07 14:04 | 54.33593 | 28.68855 | 19101 ft | 430 kts | 22° |
| 2026-05-07 14:04 | 54.36336 | 28.70998 | 19687 ft | 435 kts | 22° |
| 2026-05-07 14:04 | 54.39105 | 28.73164 | 20290 ft | 440 kts | 22° |
| 2026-05-07 14:04 | 54.41904 | 28.75352 | 20903 ft | 444 kts | 22° |
| 2026-05-07 14:05 | 54.44729 | 28.77562 | 21502 ft | 448 kts | 21° |
| 2026-05-07 14:05 | 54.47461 | 28.80056 | 22020 ft | 456 kts | 34° |
| 2026-05-07 14:05 | 54.49665 | 28.84000 | 22553 ft | 463 kts | 58° |
| 2026-05-07 14:05 | 54.51099 | 28.88946 | 23204 ft | 463 kts | 67° |
| 2026-05-07 14:06 | 54.52435 | 28.94018 | 23674 ft | 468 kts | 66° |
| 2026-05-07 14:06 | 54.53835 | 28.99111 | 24084 ft | 472 kts | 65° |
| 2026-05-07 14:06 | 54.55267 | 29.04235 | 24540 ft | 475 kts | 65° |
| 2026-05-07 14:06 | 54.56709 | 29.09365 | 25003 ft | 478 kts | 65° |
| 2026-05-07 14:07 | 54.58161 | 29.14528 | 25441 ft | 480 kts | 65° |
| 2026-05-07 14:07 | 54.59621 | 29.19730 | 25839 ft | 483 kts | 64° |
| 2026-05-07 14:07 | 54.61088 | 29.24974 | 26286 ft | 486 kts | 64° |
| 2026-05-07 14:07 | 54.62560 | 29.30261 | 26659 ft | 490 kts | 64° |
| 2026-05-07 14:08 | 54.64039 | 29.35583 | 27039 ft | 493 kts | 64° |
| 2026-05-07 14:08 | 54.65523 | 29.40938 | 27425 ft | 496 kts | 64° |
| 2026-05-07 14:08 | 54.67027 | 29.46326 | 27806 ft | 498 kts | 63° |
| 2026-05-07 14:08 | 54.68788 | 29.51487 | 28147 ft | 501 kts | 53° |
| 2026-05-07 14:09 | 54.70904 | 29.56205 | 28521 ft | 502 kts | 50° |
| 2026-05-07 14:09 | 54.73106 | 29.60919 | 28872 ft | 505 kts | 49° |
| 2026-05-07 14:09 | 54.75312 | 29.65665 | 29200 ft | 508 kts | 50° |
| 2026-05-07 14:09 | 54.77517 | 29.70471 | 29529 ft | 510 kts | 50° |
| 2026-05-07 14:10 | 54.79707 | 29.75314 | 29944 ft | 510 kts | 50° |
| 2026-05-07 14:10 | 54.81880 | 29.80170 | 30411 ft | 508 kts | 50° |
| 2026-05-07 14:10 | 54.84035 | 29.85019 | 30903 ft | 505 kts | 50° |
| 2026-05-07 14:10 | 54.86170 | 29.89843 | 31325 ft | 504 kts | 50° |
| 2026-05-07 14:11 | 54.88303 | 29.94671 | 31703 ft | 504 kts | 50° |
| 2026-05-07 14:11 | 54.90433 | 29.99498 | 32099 ft | 503 kts | 50° |
| 2026-05-07 14:11 | 54.92556 | 30.04315 | 32533 ft | 501 kts | 50° |
| 2026-05-07 14:11 | 54.94673 | 30.09126 | 32956 ft | 500 kts | 50° |
| 2026-05-07 14:12 | 54.96786 | 30.13936 | 33376 ft | 499 kts | 50° |
| 2026-05-07 14:12 | 54.98886 | 30.18725 | 33761 ft | 498 kts | 50° |
| 2026-05-07 14:12 | 55.00987 | 30.23525 | 34107 ft | 497 kts | 50° |
| 2026-05-07 14:12 | 55.03052 | 30.28251 | 34428 ft | 496 kts | 50° |
| 2026-05-07 14:13 | 55.05144 | 30.33049 | 34729 ft | 496 kts | 51° |
| 2026-05-07 14:13 | 55.07227 | 30.37836 | 35049 ft | 495 kts | 51° |
| 2026-05-07 14:13 | 55.09309 | 30.42631 | 35344 ft | 494 kts | 50° |
| 2026-05-07 14:13 | 55.11382 | 30.47402 | 35746 ft | 492 kts | 51° |
| 2026-05-07 14:14 | 55.13439 | 30.52160 | 36115 ft | 490 kts | 51° |
| 2026-05-07 14:14 | 55.15495 | 30.56927 | 36390 ft | 491 kts | 51° |
| 2026-05-07 14:14 | 55.17557 | 30.61716 | 36633 ft | 492 kts | 51° |
| 2026-05-07 14:14 | 55.19623 | 30.66520 | 36839 ft | 494 kts | 51° |
| 2026-05-07 14:15 | 55.21674 | 30.71299 | 36810 ft | 497 kts | 51° |
| 2026-05-07 14:15 | 55.25818 | 30.80979 | 36813 ft | 494 kts | 51° |
| 2026-05-07 14:16 | 55.29176 | 30.91392 | 36830 ft | 492 kts | 70° |
| 2026-05-07 14:16 | 55.31260 | 31.02828 | 36843 ft | 493 kts | 72° |
| 2026-05-07 14:17 | 55.33394 | 31.14296 | 36831 ft | 493 kts | 71° |
| 2026-05-07 14:17 | 55.35574 | 31.25741 | 36828 ft | 494 kts | 71° |
| 2026-05-07 14:18 | 55.37740 | 31.37213 | 36828 ft | 494 kts | 71° |
| 2026-05-07 14:18 | 55.39870 | 31.48636 | 36815 ft | 494 kts | 71° |
| 2026-05-07 14:19 | 55.42000 | 31.60140 | 36822 ft | 494 kts | 71° |
| 2026-05-07 14:19 | 55.43764 | 31.69709 | 36835 ft | 494 kts | 71° |
| 2026-05-07 14:20 | 55.45877 | 31.81233 | 36827 ft | 494 kts | 71° |
| 2026-05-07 14:20 | 55.47984 | 31.92789 | 36830 ft | 494 kts | 72° |
| 2026-05-07 14:21 | 55.50073 | 32.04326 | 36829 ft | 494 kts | 72° |
| 2026-05-07 14:21 | 55.52153 | 32.15883 | 36834 ft | 494 kts | 72° |
| 2026-05-07 14:22 | 55.54558 | 32.29337 | 36857 ft | 494 kts | 72° |
| 2026-05-07 14:22 | 55.56269 | 32.38969 | 36836 ft | 493 kts | 72° |
| 2026-05-07 14:23 | 55.58313 | 32.50541 | 36842 ft | 493 kts | 72° |
| 2026-05-07 14:23 | 55.60346 | 32.62126 | 36845 ft | 493 kts | 72° |
| 2026-05-07 14:24 | 55.62369 | 32.73730 | 36845 ft | 493 kts | 72° |
| 2026-05-07 14:24 | 55.64381 | 32.85342 | 36849 ft | 494 kts | 72° |
| 2026-05-07 14:25 | 55.66370 | 32.96902 | 36867 ft | 494 kts | 72° |
| 2026-05-07 14:25 | 55.68363 | 33.08559 | 36855 ft | 494 kts | 72° |
| 2026-05-07 14:26 | 55.70349 | 33.20241 | 36831 ft | 495 kts | 72° |
| 2026-05-07 14:26 | 55.72319 | 33.31923 | 36847 ft | 494 kts | 72° |
| 2026-05-07 14:27 | 55.74271 | 33.43606 | 36853 ft | 493 kts | 72° |
| 2026-05-07 14:27 | 55.76212 | 33.55302 | 36854 ft | 493 kts | 73° |
| 2026-05-07 14:28 | 55.78129 | 33.66919 | 36860 ft | 493 kts | 73° |
| 2026-05-07 14:28 | 55.80046 | 33.78618 | 36859 ft | 493 kts | 73° |
| 2026-05-07 14:29 | 55.81958 | 33.90361 | 36861 ft | 493 kts | 73° |
| 2026-05-07 14:29 | 55.83854 | 34.02089 | 36853 ft | 493 kts | 73° |
| 2026-05-07 14:30 | 55.85719 | 34.13709 | 36827 ft | 474 kts | 73° |
| 2026-05-07 14:30 | 55.86594 | 34.19192 | 36838 ft | 459 kts | 73° |
| 2026-05-07 14:30 | 55.87454 | 34.24583 | 36839 ft | 446 kts | 73° |
| 2026-05-07 14:30 | 55.88285 | 34.29815 | 36846 ft | 433 kts | 73° |
| 2026-05-07 14:31 | 55.89054 | 34.34910 | 36838 ft | 420 kts | 77° |
| 2026-05-07 14:31 | 55.89398 | 34.39995 | 36848 ft | 408 kts | 89° |
| 2026-05-07 14:31 | 55.89456 | 34.45061 | 36876 ft | 412 kts | 89° |
| 2026-05-07 14:32 | 55.89596 | 34.55477 | 36873 ft | 428 kts | 89° |
| 2026-05-07 14:32 | 55.89776 | 34.66198 | 36864 ft | 435 kts | 88° |
| 2026-05-07 14:33 | 55.89963 | 34.76912 | 36843 ft | 427 kts | 88° |
| 2026-05-07 14:33 | 55.90139 | 34.87430 | 36856 ft | 422 kts | 88° |
| 2026-05-07 14:34 | 55.90305 | 34.97877 | 36849 ft | 421 kts | 89° |
| 2026-05-07 14:34 | 55.90459 | 35.08226 | 36860 ft | 420 kts | 89° |
| 2026-05-07 14:35 | 55.90613 | 35.18626 | 36883 ft | 420 kts | 89° |
| 2026-05-07 14:35 | 55.90761 | 35.29051 | 36831 ft | 419 kts | 89° |
| 2026-05-07 14:35 | 55.90959 | 35.34200 | 36467 ft | 414 kts | 77° |
| 2026-05-07 14:36 | 55.91912 | 35.38988 | 35949 ft | 406 kts | 56° |
| 2026-05-07 14:36 | 55.93631 | 35.42906 | 35334 ft | 402 kts | 37° |
| 2026-05-07 14:36 | 55.95949 | 35.45680 | 34382 ft | 404 kts | 17° |
| 2026-05-07 14:36 | 55.98653 | 35.46981 | 33278 ft | 405 kts | 358° |
| 2026-05-07 14:37 | 56.01469 | 35.46688 | 31895 ft | 410 kts | 340° |
| 2026-05-07 14:37 | 56.06313 | 35.41462 | 29026 ft | 421 kts | 306° |
| 2026-05-07 14:37 | 56.07849 | 35.36989 | 27544 ft | 425 kts | 289° |
| 2026-05-07 14:38 | 56.08514 | 35.31838 | 26372 ft | 425 kts | 272° |
| 2026-05-07 14:38 | 56.08223 | 35.26632 | 25592 ft | 419 kts | 255° |
| 2026-05-07 14:38 | 56.07045 | 35.21908 | 24932 ft | 415 kts | 238° |
| 2026-05-07 14:38 | 56.05113 | 35.18099 | 24229 ft | 416 kts | 221° |
| 2026-05-07 14:39 | 56.02612 | 35.15534 | 23429 ft | 415 kts | 205° |
| 2026-05-07 14:39 | 55.99796 | 35.14552 | 22918 ft | 408 kts | 188° |
| 2026-05-07 14:39 | 55.97015 | 35.14525 | 22596 ft | 395 kts | 184° |
| 2026-05-07 14:39 | 55.94289 | 35.14682 | 21922 ft | 387 kts | 183° |
| 2026-05-07 14:40 | 55.91639 | 35.14994 | 21289 ft | 379 kts | 176° |
| 2026-05-07 14:40 | 55.89139 | 35.16466 | 20626 ft | 380 kts | 156° |
| 2026-05-07 14:40 | 55.87073 | 35.19386 | 20022 ft | 382 kts | 135° |
| 2026-05-07 14:40 | 55.85691 | 35.23347 | 19463 ft | 384 kts | 115° |
| 2026-05-07 14:41 | 55.85128 | 35.27984 | 18886 ft | 384 kts | 94° |
| 2026-05-07 14:41 | 55.85478 | 35.32654 | 18367 ft | 382 kts | 73° |
| 2026-05-07 14:41 | 55.86400 | 35.37004 | 18163 ft | 371 kts | 65° |
| 2026-05-07 14:41 | 55.87627 | 35.41153 | 17811 ft | 388 kts | 66° |
| 2026-05-07 14:42 | 55.88366 | 35.45806 | 17354 ft | 390 kts | 86° |
| 2026-05-07 14:42 | 55.88550 | 35.50578 | 16847 ft | 382 kts | 89° |
| 2026-05-07 14:42 | 55.88786 | 35.55255 | 16320 ft | 377 kts | 86° |
| 2026-05-07 14:42 | 55.89119 | 35.59825 | 15821 ft | 376 kts | 84° |
| 2026-05-07 14:43 | 55.89516 | 35.64453 | 15329 ft | 380 kts | 83° |
| 2026-05-07 14:43 | 55.89945 | 35.69098 | 14885 ft | 379 kts | 83° |
| 2026-05-07 14:43 | 55.90379 | 35.73700 | 14659 ft | 378 kts | 83° |
| 2026-05-07 14:43 | 55.90817 | 35.78391 | 14424 ft | 384 kts | 83° |
| 2026-05-07 14:44 | 55.91251 | 35.83071 | 14175 ft | 379 kts | 83° |
| 2026-05-07 14:44 | 55.91657 | 35.87686 | 13928 ft | 373 kts | 84° |
| 2026-05-07 14:44 | 55.92000 | 35.92163 | 13683 ft | 365 kts | 85° |
| 2026-05-07 14:44 | 55.92327 | 35.96613 | 13414 ft | 360 kts | 85° |
| 2026-05-07 14:45 | 55.92652 | 36.01027 | 13170 ft | 358 kts | 85° |
| 2026-05-07 14:45 | 55.92982 | 36.05433 | 12901 ft | 357 kts | 85° |
| 2026-05-07 14:45 | 55.93309 | 36.09805 | 12643 ft | 356 kts | 85° |
| 2026-05-07 14:45 | 55.93711 | 36.14158 | 12373 ft | 357 kts | 75° |
| 2026-05-07 14:46 | 55.94877 | 36.18029 | 12098 ft | 356 kts | 45° |
| 2026-05-07 14:46 | 55.96784 | 36.20741 | 11940 ft | 347 kts | 26° |
| 2026-05-07 14:46 | 55.98967 | 36.22506 | 11889 ft | 345 kts | 16° |
| 2026-05-07 14:46 | 56.01208 | 36.24004 | 11864 ft | 341 kts | 16° |
| 2026-05-07 14:47 | 56.03390 | 36.25519 | 11849 ft | 332 kts | 17° |
| 2026-05-07 14:47 | 56.05530 | 36.27028 | 11638 ft | 330 kts | 17° |
| 2026-05-07 14:47 | 56.07653 | 36.28538 | 11352 ft | 326 kts | 17° |
| 2026-05-07 14:47 | 56.09751 | 36.30038 | 11087 ft | 322 kts | 17° |
| 2026-05-07 14:48 | 56.11824 | 36.31523 | 10826 ft | 319 kts | 17° |
| 2026-05-07 14:48 | 56.13883 | 36.33000 | 10605 ft | 317 kts | 17° |
| 2026-05-07 14:48 | 56.15899 | 36.34449 | 10413 ft | 315 kts | 17° |
| 2026-05-07 14:48 | 56.17852 | 36.36249 | 10146 ft | 319 kts | 32° |
| 2026-05-07 14:49 | 56.19568 | 36.38749 | 9923 ft | 316 kts | 36° |
| 2026-05-07 14:49 | 56.21285 | 36.41179 | 9660 ft | 312 kts | 33° |
| 2026-05-07 14:49 | 56.23007 | 36.43514 | 9393 ft | 309 kts | 33° |
| 2026-05-07 14:49 | 56.24718 | 36.45818 | 9134 ft | 307 kts | 34° |
| 2026-05-07 14:50 | 56.26154 | 36.48649 | 8811 ft | 311 kts | 63° |
| 2026-05-07 14:50 | 56.26770 | 36.52349 | 8586 ft | 308 kts | 79° |
| 2026-05-07 14:50 | 56.27282 | 36.56105 | 8233 ft | 310 kts | 76° |
| 2026-05-07 14:50 | 56.27843 | 36.59848 | 7908 ft | 310 kts | 76° |
| 2026-05-07 14:51 | 56.28405 | 36.63589 | 7584 ft | 309 kts | 76° |
| 2026-05-07 14:51 | 56.28962 | 36.67318 | 7264 ft | 308 kts | 76° |
| 2026-05-07 14:51 | 56.29513 | 36.71025 | 7027 ft | 304 kts | 76° |
| 2026-05-07 14:51 | 56.30062 | 36.74650 | 6986 ft | 297 kts | 76° |
| 2026-05-07 14:52 | 56.30603 | 36.78207 | 6983 ft | 294 kts | 76° |
| 2026-05-07 14:52 | 56.31135 | 36.81719 | 6988 ft | 295 kts | 76° |
| 2026-05-07 14:52 | 56.31690 | 36.85281 | 6990 ft | 295 kts | 71° |
| 2026-05-07 14:52 | 56.32750 | 36.88342 | 6981 ft | 284 kts | 41° |
| 2026-05-07 14:53 | 56.34200 | 36.90709 | 6986 ft | 279 kts | 41° |
| 2026-05-07 14:53 | 56.35590 | 36.93128 | 6983 ft | 276 kts | 42° |
| 2026-05-07 14:53 | 56.36970 | 36.95553 | 6989 ft | 279 kts | 42° |
| 2026-05-07 14:53 | 56.38370 | 36.98014 | 6997 ft | 284 kts | 42° |
| 2026-05-07 14:54 | 56.39790 | 37.00508 | 6989 ft | 283 kts | 42° |
| 2026-05-07 14:54 | 56.41172 | 37.03002 | 6972 ft | 279 kts | 48° |
| 2026-05-07 14:54 | 56.42162 | 37.05957 | 6888 ft | 273 kts | 66° |
| 2026-05-07 14:54 | 56.42961 | 37.09036 | 6811 ft | 270 kts | 63° |
| 2026-05-07 14:55 | 56.43831 | 37.12046 | 6741 ft | 271 kts | 62° |
| 2026-05-07 14:55 | 56.44717 | 37.15069 | 6662 ft | 273 kts | 62° |
| 2026-05-07 14:55 | 56.45608 | 37.18105 | 6588 ft | 274 kts | 62° |
| 2026-05-07 14:55 | 56.46408 | 37.21219 | 6492 ft | 274 kts | 76° |
| 2026-05-07 14:56 | 56.46450 | 37.24594 | 6422 ft | 266 kts | 101° |
| 2026-05-07 14:56 | 56.46277 | 37.27868 | 6345 ft | 265 kts | 96° |
| 2026-05-07 14:56 | 56.46192 | 37.31193 | 6263 ft | 264 kts | 95° |
| 2026-05-07 14:56 | 56.46111 | 37.34511 | 6173 ft | 264 kts | 95° |
| 2026-05-07 14:57 | 56.46025 | 37.37820 | 6087 ft | 263 kts | 95° |
| 2026-05-07 14:57 | 56.45914 | 37.41110 | 6016 ft | 261 kts | 101° |
| 2026-05-07 14:57 | 56.45243 | 37.44059 | 5913 ft | 251 kts | 133° |
| 2026-05-07 14:57 | 56.44173 | 37.46527 | 5874 ft | 251 kts | 131° |
| 2026-05-07 14:58 | 56.43169 | 37.49139 | 5793 ft | 255 kts | 129° |
| 2026-05-07 14:58 | 56.42160 | 37.51799 | 5717 ft | 257 kts | 129° |
| 2026-05-07 14:58 | 56.41015 | 37.54250 | 5603 ft | 252 kts | 150° |
| 2026-05-07 14:58 | 56.39437 | 37.55155 | 5541 ft | 232 kts | 186° |
| 2026-05-07 14:59 | 56.37925 | 37.54553 | 5498 ft | 222 kts | 206° |
| 2026-05-07 14:59 | 56.36630 | 37.53100 | 5418 ft | 219 kts | 225° |
| 2026-05-07 14:59 | 56.35624 | 37.51055 | 5360 ft | 218 kts | 231° |
| 2026-05-07 14:59 | 56.34640 | 37.48967 | 5292 ft | 219 kts | 231° |
| 2026-05-07 15:00 | 56.33652 | 37.46887 | 5224 ft | 218 kts | 230° |
| 2026-05-07 15:00 | 56.32665 | 37.44811 | 5156 ft | 218 kts | 231° |
| 2026-05-07 15:00 | 56.31681 | 37.42734 | 5090 ft | 218 kts | 231° |
| 2026-05-07 15:00 | 56.30697 | 37.40663 | 5025 ft | 217 kts | 231° |
| 2026-05-07 15:01 | 56.29712 | 37.38594 | 4968 ft | 217 kts | 230° |
| 2026-05-07 15:01 | 56.28725 | 37.36525 | 4896 ft | 218 kts | 231° |
| 2026-05-07 15:01 | 56.27738 | 37.34461 | 4836 ft | 217 kts | 230° |
| 2026-05-07 15:01 | 56.26751 | 37.32396 | 4741 ft | 217 kts | 230° |
| 2026-05-07 15:02 | 56.25685 | 37.30542 | 4673 ft | 218 kts | 213° |
| 2026-05-07 15:02 | 56.24203 | 37.29937 | 4631 ft | 225 kts | 182° |
| 2026-05-07 15:02 | 56.22635 | 37.30328 | 4563 ft | 231 kts | 170° |
| 2026-05-07 15:02 | 56.21086 | 37.31114 | 4497 ft | 233 kts | 168° |
| 2026-05-07 15:03 | 56.19523 | 37.31930 | 4426 ft | 235 kts | 168° |
| 2026-05-07 15:03 | 56.17975 | 37.32929 | 4330 ft | 242 kts | 153° |
| 2026-05-07 15:03 | 56.16857 | 37.35218 | 4266 ft | 253 kts | 115° |
| 2026-05-07 15:03 | 56.16654 | 37.38342 | 4192 ft | 257 kts | 80° |
| 2026-05-07 15:04 | 56.17126 | 37.41427 | 4147 ft | 257 kts | 74° |
| 2026-05-07 15:04 | 56.17609 | 37.44534 | 4047 ft | 259 kts | 75° |
| 2026-05-07 15:04 | 56.18084 | 37.47654 | 3958 ft | 259 kts | 75° |
| 2026-05-07 15:04 | 56.18552 | 37.50758 | 3879 ft | 257 kts | 75° |
| 2026-05-07 15:05 | 56.19014 | 37.53824 | 3790 ft | 252 kts | 75° |
| 2026-05-07 15:05 | 56.19409 | 37.56882 | 3711 ft | 251 kts | 86° |
| 2026-05-07 15:05 | 56.19061 | 37.59832 | 3622 ft | 245 kts | 126° |
| 2026-05-07 15:05 | 56.17949 | 37.62094 | 3603 ft | 242 kts | 139° |
| 2026-05-07 15:06 | 56.17138 | 37.63542 | 3539 ft | 245 kts | 138° |
| 2026-05-07 15:06 | 56.15551 | 37.66438 | 3441 ft | 245 kts | 138° |
| 2026-05-07 15:06 | 56.14367 | 37.68606 | 3355 ft | 241 kts | 137° |
| 2026-05-07 15:06 | 56.13197 | 37.70746 | 3280 ft | 240 kts | 137° |
| 2026-05-07 15:07 | 56.12424 | 37.72158 | 3231 ft | 237 kts | 137° |
| 2026-05-07 15:07 | 56.11288 | 37.74239 | 3154 ft | 230 kts | 138° |
| 2026-05-07 15:07 | 56.10180 | 37.76228 | 3073 ft | 221 kts | 143° |
| 2026-05-07 15:07 | 56.08859 | 37.77310 | 2983 ft | 203 kts | 185° |
| 2026-05-07 15:08 | 56.07519 | 37.76748 | 3005 ft | 200 kts | 202° |
| 2026-05-07 15:08 | 56.06182 | 37.75985 | 2905 ft | 200 kts | 199° |
| 2026-05-07 15:08 | 56.04841 | 37.75243 | 2866 ft | 204 kts | 200° |
| 2026-05-07 15:08 | 56.03492 | 37.74485 | 2808 ft | 199 kts | 201° |
| 2026-05-07 15:09 | 56.02250 | 37.73630 | 2718 ft | 185 kts | 217° |
| 2026-05-07 15:09 | 56.01610 | 37.71852 | 2685 ft | 165 kts | 258° |
| 2026-05-07 15:09 | 56.01349 | 37.69855 | 2621 ft | 165 kts | 256° |
| 2026-05-07 15:09 | 56.01086 | 37.67933 | 2572 ft | 158 kts | 256° |
| 2026-05-07 15:10 | 56.00823 | 37.66073 | 2521 ft | 151 kts | 256° |
| 2026-05-07 15:10 | 56.00555 | 37.64243 | 2461 ft | 154 kts | 255° |
| 2026-05-07 15:10 | 56.00283 | 37.62429 | 2364 ft | 148 kts | 255° |
| 2026-05-07 15:10 | 56.00017 | 37.60672 | 2249 ft | 144 kts | 255° |
| 2026-05-07 15:11 | 55.99756 | 37.58942 | 2151 ft | 148 kts | 255° |
| 2026-05-07 15:11 | 55.99486 | 37.57149 | 2045 ft | 149 kts | 255° |
| 2026-05-07 15:11 | 55.99219 | 37.55376 | 1894 ft | 146 kts | 254° |
| 2026-05-07 15:11 | 55.98961 | 37.53660 | 1706 ft | 144 kts | 255° |
| 2026-05-07 15:12 | 55.98697 | 37.51905 | 1505 ft | 149 kts | 255° |
| 2026-05-07 15:12 | 55.98428 | 37.50116 | 1319 ft | 152 kts | 256° |
| 2026-05-07 15:12 | 55.98140 | 37.48357 | 1107 ft | 140 kts | 259° |
| 2026-05-07 15:12 | 55.97923 | 37.46700 | 939 ft | 136 kts | 258° |
| 2026-05-07 15:13 | 55.97673 | 37.45065 | 739 ft | 136 kts | 257° |
| 2026-05-07 15:13 | 55.97431 | 37.43458 | 641 ft | 127 kts | 257° |
| 2026-05-07 15:13 | 55.97242 | 37.42098 | 640 ft | 100 kts | 256° |
| 2026-05-07 15:13 | 55.97134 | 37.41344 | 639 ft | 8 kts | 257° |
| 2026-05-07 15:14 | 55.97115 | 37.41189 | 641 ft | 18 kts | 257° |
| 2026-05-07 15:14 | 55.97058 | 37.40850 | 637 ft | 38 kts | 255° |
| 2026-05-07 15:14 | 55.96973 | 37.40291 | 639 ft | 54 kts | 254° |
| 2026-05-07 15:14 | 55.96963 | 37.40070 | 641 ft | 11 kts | 315° |
| 2026-05-07 15:15 | 55.97035 | 37.40021 | 638 ft | 11 kts | 345° |
| 2026-05-07 15:15 | 55.97062 | 37.40008 | 640 ft | 9 kts | 345° |
| 2026-05-07 15:15 | 55.97187 | 37.39948 | 637 ft | 24 kts | 345° |
| 2026-05-07 15:15 | 55.97263 | 37.39913 | 637 ft | 0 kts | 346° |
| 2026-05-07 15:19 | 55.97310 | 37.39891 | 637 ft | 16 kts | 345° |
| 2026-05-07 15:20 | 55.97444 | 37.39823 | 643 ft | 19 kts | 342° |
| 2026-05-07 15:20 | 55.97528 | 37.39779 | 638 ft | 19 kts | 344° |
| 2026-05-07 15:20 | 55.97614 | 37.39793 | 638 ft | 9 kts | 56° |
| 2026-05-07 15:20 | 55.97627 | 37.39909 | 640 ft | 11 kts | 76° |
| 2026-05-07 15:21 | 55.97653 | 37.40093 | 641 ft | 20 kts | 74° |
| 2026-05-07 15:21 | 55.97678 | 37.40261 | 644 ft | 6 kts | 79° |
| 2026-05-07 15:21 | 55.97654 | 37.40325 | 638 ft | 9 kts | 147° |
| 2026-05-07 15:21 | 55.97613 | 37.40350 | 641 ft | 0 kts | 164° |
| 2026-05-07 15:24 | 55.97628 | 37.40343 | 638 ft | 0 kts | 345° |